sensor_id;sensor_type;location;lat;lon;timestamp;pressure;altitude;pressure_sealevel;temperature;humidity
20624;BME280;10471;42.736;23.346;2022-12-11T00:00:38;93473.56;;;11.47;100.00
20624;BME280;10471;42.736;23.346;2022-12-11T00:03:04;93474.47;;;11.51;100.00
20624;BME280;10471;42.736;23.346;2022-12-11T00:05:30;93460.06;;;11.48;100.00
20624;BME280;10471;42.736;23.346;2022-12-11T00:07:55;93459.66;;;11.58;100.00
20624;BME280;10471;42.736;23.346;2022-12-11T00:10:21;93478.34;;;11.53;100.00
20624;BME280;10471;42.736;23.346;2022-12-11T00:12:47;93473.81;;;11.54;100.00
20624;BME280;10471;42.736;23.346;2022-12-11T00:15:12;93476.63;;;11.49;100.00
20624;BME280;10471;42.736;23.346;2022-12-11T00:17:37;93447.03;;;11.31;100.00
20624;BME280;10471;42.736;23.346;2022-12-11T00:20:03;93478.38;;;11.33;100.00
20624;BME280;10471;42.736;23.346;2022-12-11T00:22:29;93461.91;;;11.36;100.00
20624;BME280;10471;42.736;23.346;2022-12-11T00:24:55;93529.06;;;11.18;100.00
20624;BME280;10471;42.736;23.346;2022-12-11T00:27:20;93454.59;;;11.21;100.00
20624;BME280;10471;42.736;23.346;2022-12-11T00:29:46;93464.69;;;11.19;100.00
20624;BME280;10471;42.736;23.346;2022-12-11T00:32:11;93485.88;;;11.10;100.00
20624;BME280;10471;42.736;23.346;2022-12-11T00:34:37;93448.66;;;11.12;100.00
20624;BME280;10471;42.736;23.346;2022-12-11T00:37:02;93456.94;;;11.02;100.00
20624;BME280;10471;42.736;23.346;2022-12-11T00:39:27;93454.28;;;10.90;100.00
20624;BME280;10471;42.736;23.346;2022-12-11T00:41:53;93443.66;;;10.99;100.00
20624;BME280;10471;42.736;23.346;2022-12-11T00:44:18;93439.63;;;11.13;100.00
20624;BME280;10471;42.736;23.346;2022-12-11T00:46:44;93464.41;;;11.00;100.00
20624;BME280;10471;42.736;23.346;2022-12-11T00:49:09;93456.44;;;11.09;100.00
20624;BME280;10471;42.736;23.346;2022-12-11T00:51:34;93440.97;;;11.19;100.00
20624;BME280;10471;42.736;23.346;2022-12-11T00:54:00;93417.03;;;11.24;100.00
20624;BME280;10471;42.736;23.346;2022-12-11T00:56:25;93426.50;;;11.25;100.00
20624;BME280;10471;42.736;23.346;2022-12-11T00:58:51;93435.75;;;10.99;100.00
20624;BME280;10471;42.736;23.346;2022-12-11T01:01:18;93498.88;;;10.95;100.00
20624;BME280;10471;42.736;23.346;2022-12-11T01:03:45;93447.63;;;11.05;100.00
20624;BME280;10471;42.736;23.346;2022-12-11T01:06:20;93377.03;;;11.10;100.00
20624;BME280;10471;42.736;23.346;2022-12-11T01:08:46;93438.13;;;11.24;100.00
20624;BME280;10471;42.736;23.346;2022-12-11T01:11:14;93477.25;;;11.22;100.00
20624;BME280;10471;42.736;23.346;2022-12-11T01:13:41;93366.84;;;11.32;100.00
20624;BME280;10471;42.736;23.346;2022-12-11T01:16:08;93423.53;;;11.26;100.00
20624;BME280;10471;42.736;23.346;2022-12-11T01:18:35;93506.88;;;11.19;100.00
20624;BME280;10471;42.736;23.346;2022-12-11T01:21:08;93506.69;;;11.24;100.00
20624;BME280;10471;42.736;23.346;2022-12-11T01:23:34;93484.03;;;11.23;100.00
20624;BME280;10471;42.736;23.346;2022-12-11T01:26:04;93434.66;;;11.32;100.00
20624;BME280;10471;42.736;23.346;2022-12-11T01:28:30;93479.38;;;11.40;100.00
20624;BME280;10471;42.736;23.346;2022-12-11T01:30:55;93524.72;;;11.34;100.00
20624;BME280;10471;42.736;23.346;2022-12-11T01:33:20;93474.41;;;11.39;100.00
20624;BME280;10471;42.736;23.346;2022-12-11T01:35:46;93407.31;;;11.48;100.00
20624;BME280;10471;42.736;23.346;2022-12-11T01:38:11;93437.06;;;11.49;100.00
20624;BME280;10471;42.736;23.346;2022-12-11T01:40:37;93444.16;;;11.57;100.00
20624;BME280;10471;42.736;23.346;2022-12-11T01:43:02;93426.56;;;11.61;100.00
20624;BME280;10471;42.736;23.346;2022-12-11T01:45:38;93440.22;;;11.63;100.00
20624;BME280;10471;42.736;23.346;2022-12-11T01:48:08;93464.19;;;11.58;100.00
20624;BME280;10471;42.736;23.346;2022-12-11T01:50:38;93458.59;;;11.83;100.00
20624;BME280;10471;42.736;23.346;2022-12-11T01:53:07;93455.53;;;12.17;100.00
20624;BME280;10471;42.736;23.346;2022-12-11T01:55:34;93483.13;;;12.31;100.00
20624;BME280;10471;42.736;23.346;2022-12-11T01:58:02;93500.72;;;12.39;100.00
20624;BME280;10471;42.736;23.346;2022-12-11T02:00:28;93495.09;;;12.52;100.00
20624;BME280;10471;42.736;23.346;2022-12-11T02:02:53;93461.25;;;12.82;100.00
20624;BME280;10471;42.736;23.346;2022-12-11T02:05:19;93490.81;;;13.11;100.00
20624;BME280;10471;42.736;23.346;2022-12-11T02:07:51;93488.47;;;13.09;100.00
20624;BME280;10471;42.736;23.346;2022-12-11T02:10:18;93474.88;;;13.50;100.00
20624;BME280;10471;42.736;23.346;2022-12-11T02:12:58;93483.19;;;13.95;100.00
20624;BME280;10471;42.736;23.346;2022-12-11T02:15:32;93479.34;;;14.08;100.00
20624;BME280;10471;42.736;23.346;2022-12-11T02:21:12;93435.78;;;14.21;100.00
20624;BME280;10471;42.736;23.346;2022-12-11T02:26:38;93453.78;;;14.80;100.00
20624;BME280;10471;42.736;23.346;2022-12-11T02:29:18;93377.81;;;14.91;100.00
20624;BME280;10471;42.736;23.346;2022-12-11T02:34:22;93404.19;;;14.65;100.00
20624;BME280;10471;42.736;23.346;2022-12-11T02:36:53;93394.72;;;15.02;100.00
20624;BME280;10471;42.736;23.346;2022-12-11T02:39:23;93405.06;;;14.88;100.00
20624;BME280;10471;42.736;23.346;2022-12-11T02:41:51;93413.56;;;14.97;100.00
20624;BME280;10471;42.736;23.346;2022-12-11T02:44:23;93429.75;;;14.92;100.00
20624;BME280;10471;42.736;23.346;2022-12-11T02:46:50;93424.38;;;14.89;100.00
20624;BME280;10471;42.736;23.346;2022-12-11T02:49:17;93426.69;;;14.71;100.00
20624;BME280;10471;42.736;23.346;2022-12-11T02:51:44;93441.47;;;14.53;100.00
20624;BME280;10471;42.736;23.346;2022-12-11T02:54:14;93430.97;;;14.60;100.00
20624;BME280;10471;42.736;23.346;2022-12-11T02:56:53;93432.13;;;14.78;100.00
20624;BME280;10471;42.736;23.346;2022-12-11T02:59:24;93446.06;;;14.75;100.00
20624;BME280;10471;42.736;23.346;2022-12-11T03:01:50;93441.47;;;14.72;100.00
20624;BME280;10471;42.736;23.346;2022-12-11T03:04:16;93434.22;;;14.69;100.00
20624;BME280;10471;42.736;23.346;2022-12-11T03:06:45;93430.88;;;14.72;100.00
20624;BME280;10471;42.736;23.346;2022-12-11T03:09:13;93431.44;;;14.81;100.00
20624;BME280;10471;42.736;23.346;2022-12-11T03:11:38;93423.69;;;15.10;100.00
20624;BME280;10471;42.736;23.346;2022-12-11T03:14:04;93421.81;;;15.30;100.00
20624;BME280;10471;42.736;23.346;2022-12-11T03:16:38;93427.38;;;15.44;100.00
20624;BME280;10471;42.736;23.346;2022-12-11T03:19:19;93403.66;;;15.32;100.00
20624;BME280;10471;42.736;23.346;2022-12-11T03:21:54;93412.88;;;15.19;100.00
20624;BME280;10471;42.736;23.346;2022-12-11T03:24:28;93425.81;;;15.39;100.00
20624;BME280;10471;42.736;23.346;2022-12-11T03:26:58;93416.38;;;15.42;100.00
20624;BME280;10471;42.736;23.346;2022-12-11T03:29:31;93434.16;;;15.41;100.00
20624;BME280;10471;42.736;23.346;2022-12-11T03:32:09;93409.44;;;15.18;100.00
20624;BME280;10471;42.736;23.346;2022-12-11T03:34:41;93434.88;;;15.01;100.00
20624;BME280;10471;42.736;23.346;2022-12-11T03:37:10;93447.66;;;14.95;100.00
20624;BME280;10471;42.736;23.346;2022-12-11T03:39:48;93448.22;;;15.42;100.00
20624;BME280;10471;42.736;23.346;2022-12-11T03:42:15;93459.25;;;15.44;100.00
20624;BME280;10471;42.736;23.346;2022-12-11T03:44:46;93475.38;;;15.16;100.00
20624;BME280;10471;42.736;23.346;2022-12-11T03:47:17;93478.28;;;15.11;100.00
20624;BME280;10471;42.736;23.346;2022-12-11T03:49:44;93476.13;;;15.17;100.00
20624;BME280;10471;42.736;23.346;2022-12-11T03:52:13;93480.94;;;15.27;100.00
20624;BME280;10471;42.736;23.346;2022-12-11T03:54:42;93490.91;;;15.33;100.00
20624;BME280;10471;42.736;23.346;2022-12-11T03:57:13;93482.66;;;15.38;100.00
20624;BME280;10471;42.736;23.346;2022-12-11T03:59:40;93487.91;;;15.35;100.00
20624;BME280;10471;42.736;23.346;2022-12-11T04:02:06;93474.19;;;15.33;100.00
20624;BME280;10471;42.736;23.346;2022-12-11T04:04:39;93480.94;;;15.27;100.00
20624;BME280;10471;42.736;23.346;2022-12-11T04:07:05;93504.81;;;15.46;100.00
20624;BME280;10471;42.736;23.346;2022-12-11T04:09:31;93503.09;;;15.38;100.00
20624;BME280;10471;42.736;23.346;2022-12-11T04:11:56;93478.38;;;15.15;100.00
20624;BME280;10471;42.736;23.346;2022-12-11T04:14:22;93485.69;;;15.03;100.00
20624;BME280;10471;42.736;23.346;2022-12-11T04:17:06;93492.03;;;14.98;100.00
20624;BME280;10471;42.736;23.346;2022-12-11T04:19:32;93484.09;;;14.98;100.00
20624;BME280;10471;42.736;23.346;2022-12-11T04:22:16;93500.91;;;15.06;100.00
20624;BME280;10471;42.736;23.346;2022-12-11T04:25:03;93500.91;;;15.06;100.00
20624;BME280;10471;42.736;23.346;2022-12-11T04:27:28;93514.97;;;15.06;100.00
20624;BME280;10471;42.736;23.346;2022-12-11T04:30:15;93491.84;;;15.07;100.00
20624;BME280;10471;42.736;23.346;2022-12-11T04:32:41;93497.44;;;15.20;100.00
20624;BME280;10471;42.736;23.346;2022-12-11T04:35:08;93472.34;;;15.18;100.00
20624;BME280;10471;42.736;23.346;2022-12-11T04:37:34;93473.75;;;15.12;100.00
20624;BME280;10471;42.736;23.346;2022-12-11T04:39:59;93478.38;;;15.15;100.00
20624;BME280;10471;42.736;23.346;2022-12-11T04:42:25;93490.00;;;15.26;100.00
20624;BME280;10471;42.736;23.346;2022-12-11T04:44:50;93485.63;;;15.18;100.00
20624;BME280;10471;42.736;23.346;2022-12-11T04:47:16;93486.63;;;15.10;100.00
20624;BME280;10471;42.736;23.346;2022-12-11T04:49:42;93467.47;;;15.01;100.00
20624;BME280;10471;42.736;23.346;2022-12-11T04:52:07;93482.97;;;15.18;100.00
20624;BME280;10471;42.736;23.346;2022-12-11T04:54:33;93481.97;;;15.07;100.00
20624;BME280;10471;42.736;23.346;2022-12-11T04:56:58;93498.63;;;15.04;100.00
20624;BME280;10471;42.736;23.346;2022-12-11T04:59:24;93491.91;;;15.10;100.00
20624;BME280;10471;42.736;23.346;2022-12-11T05:01:49;93495.13;;;15.19;100.00
20624;BME280;10471;42.736;23.346;2022-12-11T05:04:15;93500.63;;;15.26;100.00
20624;BME280;10471;42.736;23.346;2022-12-11T05:06:40;93502.63;;;15.51;96.82
20624;BME280;10471;42.736;23.346;2022-12-11T05:09:10;93504.47;;;15.70;94.41
20624;BME280;10471;42.736;23.346;2022-12-11T05:11:36;93490.66;;;15.61;96.13
20624;BME280;10471;42.736;23.346;2022-12-11T05:14:01;93495.22;;;15.60;94.51
20624;BME280;10471;42.736;23.346;2022-12-11T05:16:27;93510.25;;;15.53;95.89
20624;BME280;10471;42.736;23.346;2022-12-11T05:18:53;93504.38;;;15.63;91.05
20624;BME280;10471;42.736;23.346;2022-12-11T05:21:18;93498.47;;;15.73;90.77
20624;BME280;10471;42.736;23.346;2022-12-11T05:23:44;93515.19;;;15.73;89.95
20624;BME280;10471;42.736;23.346;2022-12-11T05:26:15;93510.75;;;15.99;83.29
20624;BME280;10471;42.736;23.346;2022-12-11T05:28:41;93520.13;;;15.93;83.36
20624;BME280;10471;42.736;23.346;2022-12-11T05:31:13;93509.56;;;15.78;91.31
20624;BME280;10471;42.736;23.346;2022-12-11T05:33:39;93526.84;;;15.69;91.53
20624;BME280;10471;42.736;23.346;2022-12-11T05:36:05;93529.66;;;15.75;90.65
20624;BME280;10471;42.736;23.346;2022-12-11T05:38:31;93532.44;;;15.64;94.33
20624;BME280;10471;42.736;23.346;2022-12-11T05:40:59;93536.94;;;15.60;93.32
20624;BME280;10471;42.736;23.346;2022-12-11T05:43:26;93524.13;;;16.06;82.56
20624;BME280;10471;42.736;23.346;2022-12-11T05:45:52;93520.28;;;16.04;83.78
20624;BME280;10471;42.736;23.346;2022-12-11T05:48:18;93529.00;;;15.82;88.53
20624;BME280;10471;42.736;23.346;2022-12-11T05:50:43;93523.50;;;15.72;89.84
20624;BME280;10471;42.736;23.346;2022-12-11T05:53:09;93530.78;;;15.56;99.62
20624;BME280;10471;42.736;23.346;2022-12-11T05:55:35;93509.00;;;15.47;99.52
20624;BME280;10471;42.736;23.346;2022-12-11T05:58:01;93510.38;;;15.41;100.00
20624;BME280;10471;42.736;23.346;2022-12-11T06:00:26;93509.06;;;15.31;100.00
20624;BME280;10471;42.736;23.346;2022-12-11T06:02:52;93492.91;;;15.21;100.00
20624;BME280;10471;42.736;23.346;2022-12-11T06:05:17;93498.88;;;15.33;100.00
20624;BME280;10471;42.736;23.346;2022-12-11T06:07:42;93499.22;;;15.32;100.00
20624;BME280;10471;42.736;23.346;2022-12-11T06:10:08;93489.22;;;15.25;100.00
20624;BME280;10471;42.736;23.346;2022-12-11T06:12:34;93496.84;;;15.27;100.00
20624;BME280;10471;42.736;23.346;2022-12-11T06:14:59;93504.91;;;15.15;100.00
20624;BME280;10471;42.736;23.346;2022-12-11T06:17:24;93491.41;;;15.05;100.00
20624;BME280;10471;42.736;23.346;2022-12-11T06:19:50;93510.91;;;15.12;100.00
20624;BME280;10471;42.736;23.346;2022-12-11T06:22:15;93517.34;;;15.11;100.00
20624;BME280;10471;42.736;23.346;2022-12-11T06:24:40;93529.81;;;15.26;100.00
20624;BME280;10471;42.736;23.346;2022-12-11T06:27:06;93528.41;;;15.51;100.00
20624;BME280;10471;42.736;23.346;2022-12-11T06:29:31;93526.53;;;15.70;96.08
20624;BME280;10471;42.736;23.346;2022-12-11T06:31:57;93528.09;;;15.74;100.00
20624;BME280;10471;42.736;23.346;2022-12-11T06:34:22;93533.97;;;15.65;100.00
20624;BME280;10471;42.736;23.346;2022-12-11T06:36:48;93538.03;;;15.59;100.00
20624;BME280;10471;42.736;23.346;2022-12-11T06:39:13;93528.84;;;15.53;100.00
20624;BME280;10471;42.736;23.346;2022-12-11T06:41:38;93534.44;;;15.48;100.00
20624;BME280;10471;42.736;23.346;2022-12-11T06:44:04;93524.66;;;15.52;100.00
20624;BME280;10471;42.736;23.346;2022-12-11T06:46:29;93513.88;;;15.45;100.00
20624;BME280;10471;42.736;23.346;2022-12-11T06:48:54;93510.09;;;15.46;100.00
20624;BME280;10471;42.736;23.346;2022-12-11T06:51:21;93505.91;;;15.45;100.00
20624;BME280;10471;42.736;23.346;2022-12-11T06:53:55;93520.72;;;15.65;99.21
20624;BME280;10471;42.736;23.346;2022-12-11T06:56:22;93515.38;;;15.83;97.52
20624;BME280;10471;42.736;23.346;2022-12-11T06:58:48;93496.13;;;15.68;100.00
20624;BME280;10471;42.736;23.346;2022-12-11T07:01:22;93500.84;;;15.59;100.00
20624;BME280;10471;42.736;23.346;2022-12-11T07:03:48;93493.31;;;15.61;100.00
20624;BME280;10471;42.736;23.346;2022-12-11T07:06:16;93521.56;;;15.50;100.00
20624;BME280;10471;42.736;23.346;2022-12-11T07:08:42;93522.53;;;15.61;100.00
20624;BME280;10471;42.736;23.346;2022-12-11T07:11:10;93528.00;;;15.68;100.00
20624;BME280;10471;42.736;23.346;2022-12-11T07:13:37;93535.09;;;15.82;98.65
20624;BME280;10471;42.736;23.346;2022-12-11T07:16:03;93525.00;;;15.91;96.50
20624;BME280;10471;42.736;23.346;2022-12-11T07:18:33;93529.44;;;16.06;91.98
20624;BME280;10471;42.736;23.346;2022-12-11T07:20:59;93538.81;;;16.19;88.93
20624;BME280;10471;42.736;23.346;2022-12-11T07:23:26;93553.75;;;16.27;89.24
20624;BME280;10471;42.736;23.346;2022-12-11T07:25:52;93542.53;;;16.37;87.31
20624;BME280;10471;42.736;23.346;2022-12-11T07:28:18;93556.69;;;16.41;85.72
20624;BME280;10471;42.736;23.346;2022-12-11T07:30:43;93543.13;;;16.49;85.36
20624;BME280;10471;42.736;23.346;2022-12-11T07:33:09;93556.06;;;16.73;78.03
20624;BME280;10471;42.736;23.346;2022-12-11T07:35:34;93561.00;;;16.75;78.05
20624;BME280;10471;42.736;23.346;2022-12-11T07:38:00;93562.22;;;16.55;88.21
20624;BME280;10471;42.736;23.346;2022-12-11T07:40:25;93564.09;;;16.32;97.78
20624;BME280;10471;42.736;23.346;2022-12-11T07:42:51;93561.75;;;16.27;99.94
20624;BME280;10471;42.736;23.346;2022-12-11T07:45:17;93556.91;;;16.14;100.00
20624;BME280;10471;42.736;23.346;2022-12-11T07:47:42;93571.69;;;16.11;100.00
20624;BME280;10471;42.736;23.346;2022-12-11T07:50:08;93572.09;;;16.13;100.00
20624;BME280;10471;42.736;23.346;2022-12-11T07:52:33;93574.41;;;16.15;100.00
20624;BME280;10471;42.736;23.346;2022-12-11T07:54:59;93582.91;;;16.24;100.00
20624;BME280;10471;42.736;23.346;2022-12-11T07:57:24;93577.56;;;16.20;98.27
20624;BME280;10471;42.736;23.346;2022-12-11T07:59:50;93588.75;;;16.51;83.80
20624;BME280;10471;42.736;23.346;2022-12-11T08:02:15;93579.06;;;16.62;82.24
20624;BME280;10471;42.736;23.346;2022-12-11T08:04:41;93579.81;;;16.63;86.55
20624;BME280;10471;42.736;23.346;2022-12-11T08:07:06;93588.22;;;16.65;83.64
20624;BME280;10471;42.736;23.346;2022-12-11T08:09:31;93591.75;;;16.72;80.16
20624;BME280;10471;42.736;23.346;2022-12-11T08:11:57;93590.72;;;16.77;80.62
20624;BME280;10471;42.736;23.346;2022-12-11T08:14:22;93601.44;;;16.84;76.19
20624;BME280;10471;42.736;23.346;2022-12-11T08:16:48;93607.94;;;16.86;80.42
20624;BME280;10471;42.736;23.346;2022-12-11T08:19:13;93582.81;;;16.84;83.89
20624;BME280;10471;42.736;23.346;2022-12-11T08:21:39;93608.50;;;16.99;71.94
20624;BME280;10471;42.736;23.346;2022-12-11T08:24:05;93600.53;;;16.99;84.66
20624;BME280;10471;42.736;23.346;2022-12-11T08:26:30;93604.09;;;16.84;88.95
20624;BME280;10471;42.736;23.346;2022-12-11T08:28:57;93600.19;;;16.78;89.86
20624;BME280;10471;42.736;23.346;2022-12-11T08:31:23;93599.09;;;16.79;92.11
20624;BME280;10471;42.736;23.346;2022-12-11T08:33:49;93594.13;;;16.55;95.57
20624;BME280;10471;42.736;23.346;2022-12-11T08:36:19;93592.44;;;16.66;85.37
20624;BME280;10471;42.736;23.346;2022-12-11T08:38:45;93593.69;;;16.75;87.43
20624;BME280;10471;42.736;23.346;2022-12-11T08:41:14;93602.34;;;16.69;87.69
20624;BME280;10471;42.736;23.346;2022-12-11T08:43:41;93590.47;;;16.63;88.11
20624;BME280;10471;42.736;23.346;2022-12-11T08:46:07;93594.97;;;16.59;84.26
20624;BME280;10471;42.736;23.346;2022-12-11T08:48:33;93604.00;;;16.54;85.90
20624;BME280;10471;42.736;23.346;2022-12-11T08:51:00;93598.63;;;16.51;85.29
20624;BME280;10471;42.736;23.346;2022-12-11T08:53:29;93601.31;;;16.51;88.02
20624;BME280;10471;42.736;23.346;2022-12-11T08:56:06;93595.41;;;16.42;91.91
20624;BME280;10471;42.736;23.346;2022-12-11T08:58:32;93589.16;;;16.31;98.18
20624;BME280;10471;42.736;23.346;2022-12-11T09:00:57;93585.94;;;16.22;100.00
20624;BME280;10471;42.736;23.346;2022-12-11T09:03:23;93583.56;;;16.17;100.00
20624;BME280;10471;42.736;23.346;2022-12-11T09:05:49;93586.84;;;15.88;100.00
20624;BME280;10471;42.736;23.346;2022-12-11T09:08:14;93590.88;;;15.82;100.00
20624;BME280;10471;42.736;23.346;2022-12-11T09:10:39;93587.59;;;15.89;100.00
20624;BME280;10471;42.736;23.346;2022-12-11T09:13:05;93604.28;;;15.89;100.00
20624;BME280;10471;42.736;23.346;2022-12-11T09:15:30;93605.47;;;15.92;100.00
20624;BME280;10471;42.736;23.346;2022-12-11T09:17:56;93598.72;;;15.94;100.00
20624;BME280;10471;42.736;23.346;2022-12-11T09:20:21;93594.22;;;15.98;100.00
20624;BME280;10471;42.736;23.346;2022-12-11T09:22:46;93594.50;;;15.93;100.00
20624;BME280;10471;42.736;23.346;2022-12-11T09:25:12;93588.34;;;15.89;100.00
20624;BME280;10471;42.736;23.346;2022-12-11T09:27:37;93585.47;;;15.98;100.00
20624;BME280;10471;42.736;23.346;2022-12-11T09:30:03;93583.84;;;16.12;100.00
20624;BME280;10471;42.736;23.346;2022-12-11T09:32:29;93582.16;;;16.23;100.00
20624;BME280;10471;42.736;23.346;2022-12-11T09:34:54;93583.78;;;16.28;100.00
20624;BME280;10471;42.736;23.346;2022-12-11T09:37:19;93577.41;;;16.32;100.00
20624;BME280;10471;42.736;23.346;2022-12-11T09:39:45;93588.91;;;16.40;100.00
20624;BME280;10471;42.736;23.346;2022-12-11T09:42:18;93575.69;;;16.43;100.00
20624;BME280;10471;42.736;23.346;2022-12-11T09:44:52;93570.91;;;16.30;100.00
20624;BME280;10471;42.736;23.346;2022-12-11T09:47:34;93580.34;;;16.27;100.00
20624;BME280;10471;42.736;23.346;2022-12-11T09:55:21;93575.09;;;16.53;90.53
20624;BME280;10471;42.736;23.346;2022-12-11T10:00:54;93566.19;;;16.64;78.98
20624;BME280;10471;42.736;23.346;2022-12-11T10:03:54;93568.34;;;16.59;86.54
20624;BME280;10471;42.736;23.346;2022-12-11T10:06:40;93570.56;;;16.53;86.82
20624;BME280;10471;42.736;23.346;2022-12-11T10:17:31;93552.50;;;16.21;93.75
20624;BME280;10471;42.736;23.346;2022-12-11T10:20:02;93549.13;;;16.24;94.37
20624;BME280;10471;42.736;23.346;2022-12-11T10:22:31;93541.75;;;16.14;100.00
20624;BME280;10471;42.736;23.346;2022-12-11T10:25:03;93550.41;;;16.11;100.00
20624;BME280;10471;42.736;23.346;2022-12-11T10:27:32;93553.78;;;16.08;100.00
20624;BME280;10471;42.736;23.346;2022-12-11T10:30:19;93549.06;;;15.98;100.00
20624;BME280;10471;42.736;23.346;2022-12-11T10:35:33;93555.84;;;15.96;100.00
20624;BME280;10471;42.736;23.346;2022-12-11T10:38:12;93551.09;;;15.86;100.00
20624;BME280;10471;42.736;23.346;2022-12-11T10:40:43;93548.75;;;15.81;100.00
20624;BME280;10471;42.736;23.346;2022-12-11T10:43:08;93550.91;;;15.75;100.00
20624;BME280;10471;42.736;23.346;2022-12-11T10:45:35;93539.59;;;15.78;100.00
20624;BME280;10471;42.736;23.346;2022-12-11T10:48:02;93534.38;;;15.85;100.00
20624;BME280;10471;42.736;23.346;2022-12-11T10:50:27;93532.44;;;15.82;100.00
20624;BME280;10471;42.736;23.346;2022-12-11T10:52:53;93523.75;;;15.85;100.00
20624;BME280;10471;42.736;23.346;2022-12-11T10:58:02;93518.34;;;15.78;100.00
20624;BME280;10471;42.736;23.346;2022-12-11T11:00:34;93514.97;;;15.81;100.00
20624;BME280;10471;42.736;23.346;2022-12-11T11:03:03;93513.06;;;15.82;100.00
20624;BME280;10471;42.736;23.346;2022-12-11T11:05:30;93516.22;;;15.87;100.00
20624;BME280;10471;42.736;23.346;2022-12-11T11:08:20;93522.41;;;15.95;100.00
20624;BME280;10471;42.736;23.346;2022-12-11T11:13:14;93515.03;;;16.07;100.00
20624;BME280;10471;42.736;23.346;2022-12-11T11:15:40;93522.28;;;16.10;100.00
20624;BME280;10471;42.736;23.346;2022-12-11T11:18:11;93521.19;;;16.11;100.00
20624;BME280;10471;42.736;23.346;2022-12-11T11:20:46;93517.34;;;16.09;100.00
20624;BME280;10471;42.736;23.346;2022-12-11T11:23:14;93517.41;;;16.12;100.00
20624;BME280;10471;42.736;23.346;2022-12-11T11:25:48;93515.50;;;16.13;100.00
20624;BME280;10471;42.736;23.346;2022-12-11T11:28:20;93521.13;;;16.08;100.00
20624;BME280;10471;42.736;23.346;2022-12-11T11:31:09;93515.34;;;16.02;100.00
20624;BME280;10471;42.736;23.346;2022-12-11T11:33:36;93518.72;;;15.99;100.00
20624;BME280;10471;42.736;23.346;2022-12-11T11:36:21;93523.81;;;15.89;100.00
20624;BME280;10471;42.736;23.346;2022-12-11T11:39:19;93512.44;;;15.88;100.00
20624;BME280;10471;42.736;23.346;2022-12-11T11:44:59;93513.13;;;15.85;100.00
20624;BME280;10471;42.736;23.346;2022-12-11T11:47:29;93503.31;;;15.89;100.00
20624;BME280;10471;42.736;23.346;2022-12-11T11:50:15;93503.31;;;15.89;100.00
20624;BME280;10471;42.736;23.346;2022-12-11T11:52:47;93500.34;;;15.91;100.00
20624;BME280;10471;42.736;23.346;2022-12-11T11:55:18;93504.88;;;15.90;100.00
20624;BME280;10471;42.736;23.346;2022-12-11T11:57:55;93506.63;;;15.83;100.00
20624;BME280;10471;42.736;23.346;2022-12-11T12:00:24;93512.44;;;14.44;100.00
20624;BME280;10471;42.736;23.346;2022-12-11T12:02:53;93518.69;;;13.63;100.00
20624;BME280;10471;42.736;23.346;2022-12-11T12:08:13;93524.06;;;12.13;100.00
20624;BME280;10471;42.736;23.346;2022-12-11T12:10:52;93528.25;;;12.26;100.00
20624;BME280;10471;42.736;23.346;2022-12-11T12:16:41;93546.75;;;11.70;100.00
20624;BME280;10471;42.736;23.346;2022-12-11T12:27:20;93579.06;;;10.37;100.00
20624;BME280;10471;42.736;23.346;2022-12-11T12:32:31;93586.00;;;9.95;100.00
20624;BME280;10471;42.736;23.346;2022-12-11T12:40:31;93589.34;;;9.00;100.00
20624;BME280;10471;42.736;23.346;2022-12-11T12:43:22;93569.59;;;8.77;100.00
20624;BME280;10471;42.736;23.346;2022-12-11T12:45:53;93566.75;;;8.48;100.00
20624;BME280;10471;42.736;23.346;2022-12-11T12:48:23;93580.28;;;8.33;100.00
20624;BME280;10471;42.736;23.346;2022-12-11T12:50:50;93572.41;;;8.33;100.00
20624;BME280;10471;42.736;23.346;2022-12-11T12:53:22;93586.44;;;8.20;100.00
20624;BME280;10471;42.736;23.346;2022-12-11T12:55:50;93587.72;;;8.01;100.00
20624;BME280;10471;42.736;23.346;2022-12-11T12:58:39;93588.13;;;7.86;100.00
20624;BME280;10471;42.736;23.346;2022-12-11T13:03:35;93611.97;;;7.76;100.00
20624;BME280;10471;42.736;23.346;2022-12-11T13:06:07;93602.34;;;7.63;100.00
20624;BME280;10471;42.736;23.346;2022-12-11T13:08:41;93606.13;;;7.49;100.00
20624;BME280;10471;42.736;23.346;2022-12-11T13:11:09;93600.03;;;7.40;100.00
20624;BME280;10471;42.736;23.346;2022-12-11T13:13:38;93599.09;;;7.36;100.00
20624;BME280;10471;42.736;23.346;2022-12-11T13:18:38;93598.50;;;7.17;100.00
20624;BME280;10471;42.736;23.346;2022-12-11T13:21:27;93617.53;;;7.09;100.00
20624;BME280;10471;42.736;23.346;2022-12-11T13:23:54;93641.00;;;7.01;100.00
20624;BME280;10471;42.736;23.346;2022-12-11T13:26:31;93620.59;;;6.89;100.00
20624;BME280;10471;42.736;23.346;2022-12-11T13:28:57;93627.00;;;6.83;100.00
20624;BME280;10471;42.736;23.346;2022-12-11T13:31:29;93647.59;;;6.76;100.00
20624;BME280;10471;42.736;23.346;2022-12-11T13:34:01;93656.00;;;6.73;100.00
20624;BME280;10471;42.736;23.346;2022-12-11T13:36:34;93653.00;;;6.66;100.00
20624;BME280;10471;42.736;23.346;2022-12-11T13:39:14;93650.97;;;6.63;100.00
20624;BME280;10471;42.736;23.346;2022-12-11T13:41:44;93685.00;;;6.63;100.00
20624;BME280;10471;42.736;23.346;2022-12-11T13:44:23;93673.06;;;6.57;100.00
20624;BME280;10471;42.736;23.346;2022-12-11T13:46:50;93683.19;;;6.51;100.00
20624;BME280;10471;42.736;23.346;2022-12-11T13:49:21;93683.34;;;6.41;100.00
20624;BME280;10471;42.736;23.346;2022-12-11T13:51:52;93701.75;;;6.36;100.00
20624;BME280;10471;42.736;23.346;2022-12-11T13:54:18;93696.91;;;6.29;100.00